createdAt,value
2022-09-17T08:42:17.559Z,14.80
2022-09-17T08:46:06.024Z,15.32
2022-09-17T08:50:17.816Z,15.59
2022-09-17T08:54:36.555Z,16.31
2022-09-17T08:58:32.984Z,16.71
2022-09-17T09:02:24.100Z,16.88
2022-09-17T09:06:14.863Z,17.36
2022-09-17T09:10:06.481Z,17.42
2022-09-17T09:13:55.178Z,17.76
2022-09-17T09:17:43.935Z,17.82
2022-09-17T09:21:34.661Z,17.73
2022-09-17T09:25:22.648Z,16.99
2022-09-17T09:29:16.107Z,16.95
2022-09-17T09:33:13.532Z,16.84
2022-09-17T09:37:01.386Z,17.01
2022-09-17T09:40:47.280Z,17.39
2022-09-17T09:44:37.757Z,17.57
2022-09-17T09:48:34.710Z,17.26
2022-09-17T09:52:22.892Z,17.62
2022-09-17T09:56:23.941Z,17.77
2022-09-17T10:00:12.409Z,18.41
2022-09-17T10:03:55.437Z,18.86
2022-09-17T10:07:45.944Z,19.06
2022-09-17T10:11:39.224Z,18.51
2022-09-17T10:15:27.848Z,18.96
2022-09-17T10:19:15.889Z,19.50
2022-09-17T10:23:21.501Z,19.62
2022-09-17T10:27:09.244Z,19.97
2022-09-17T10:31:07.842Z,20.09
2022-09-17T10:35:02.611Z,19.09
2022-09-17T10:38:50.271Z,17.74
2022-09-17T10:42:38.245Z,16.69
2022-09-17T10:46:27.760Z,16.88
2022-09-17T10:50:21.852Z,16.04
2022-09-17T10:54:11.637Z,16.26
2022-09-17T10:58:00.030Z,16.31
2022-09-17T11:01:06.162Z,16.43
2022-09-17T11:05:08.117Z,16.10
2022-09-17T11:08:58.698Z,16.21
2022-09-17T11:12:40.970Z,16.10
2022-09-17T11:16:34.672Z,15.99
2022-09-17T11:20:31.204Z,15.98
2022-09-17T11:24:24.219Z,16.20
2022-09-17T11:28:06.794Z,16.30
2022-09-17T11:32:02.210Z,16.32
2022-09-17T11:35:41.877Z,16.46
2022-09-17T11:39:27.890Z,16.51
2022-09-17T11:43:17.363Z,17.49
2022-09-17T11:47:13.009Z,18.02
2022-09-17T11:50:54.777Z,18.58
2022-09-17T11:54:48.604Z,19.07
2022-09-17T11:58:27.883Z,19.23
2022-09-17T12:02:21.860Z,19.36
2022-09-17T12:06:11.640Z,19.06
2022-09-17T12:09:53.848Z,18.90
2022-09-17T12:13:39.784Z,18.69
2022-09-17T12:17:28.076Z,18.45
2022-09-17T12:21:16.622Z,18.96
2022-09-17T12:25:07.310Z,19.44
2022-09-17T12:28:57.589Z,20.01
2022-09-17T12:32:43.269Z,19.51
2022-09-17T12:36:10.362Z,19.29
2022-09-17T12:40:17.571Z,19.19
2022-09-17T12:44:27.842Z,19.86
2022-09-17T12:48:28.240Z,20.07
2022-09-17T12:52:26.645Z,19.77
2022-09-17T12:56:20.564Z,19.01
2022-09-17T13:00:11.902Z,19.41
2022-09-17T13:04:03.663Z,20.09
2022-09-17T13:07:57.553Z,20.84
2022-09-17T13:12:04.406Z,21.59
2022-09-17T13:15:58.110Z,22.40
2022-09-17T13:20:16.517Z,22.55
2022-09-17T13:24:10.234Z,21.70
2022-09-17T13:27:59.374Z,20.63
2022-09-17T13:32:04.009Z,18.92
2022-09-17T13:35:55.123Z,18.58
2022-09-17T13:39:43.719Z,18.85
2022-09-17T13:43:41.363Z,18.46
2022-09-17T13:47:30.714Z,18.55
2022-09-17T13:51:35.073Z,18.77
2022-09-17T13:55:23.925Z,19.46
2022-09-17T13:59:20.562Z,19.55
2022-09-17T14:03:07.477Z,19.53
2022-09-17T14:06:56.784Z,18.88
2022-09-17T14:10:58.981Z,18.46
2022-09-17T14:14:51.314Z,19.24
2022-09-17T14:19:09.266Z,19.64
2022-09-17T14:23:11.556Z,20.10
2022-09-17T14:27:00.142Z,19.78
2022-09-17T14:31:01.063Z,19.61
2022-09-17T14:34:50.638Z,19.56
2022-09-17T14:38:38.269Z,20.16
2022-09-17T14:42:30.903Z,19.95
2022-09-17T14:46:19.967Z,19.86
2022-09-17T14:50:23.730Z,19.50
2022-09-17T14:54:09.990Z,19.97
2022-09-17T14:58:07.649Z,20.07
2022-09-17T15:02:01.322Z,20.02
2022-09-17T15:05:58.408Z,19.73
2022-09-17T15:09:46.435Z,19.37
2022-09-17T15:13:35.241Z,19.04
2022-09-17T15:17:23.590Z,18.95
2022-09-17T15:34:06.839Z,17.49
2022-09-17T15:42:29.839Z,17.19
2022-09-17T15:46:23.788Z,17.35
2022-09-17T15:50:26.636Z,17.26
2022-09-17T15:54:16.362Z,17.38
2022-09-17T15:58:04.131Z,17.76
2022-09-17T16:01:55.315Z,18.01
2022-09-17T16:05:55.732Z,17.66
2022-09-17T16:09:45.725Z,17.39
2022-09-17T16:13:34.734Z,17.24
2022-09-17T16:17:23.016Z,17.26
2022-09-17T16:21:14.955Z,17.17
2022-09-17T16:29:21.904Z,16.80
2022-09-17T16:33:09.674Z,16.62
2022-09-17T16:36:58.685Z,16.69
2022-09-17T16:40:49.406Z,16.56
2022-09-17T16:44:37.460Z,16.43
2022-09-17T16:48:27.862Z,16.51
2022-09-17T16:52:15.860Z,16.43
2022-09-17T16:56:04.224Z,16.27
2022-09-17T16:59:55.934Z,16.13
2022-09-17T17:03:43.264Z,16.02
2022-09-17T17:07:31.646Z,15.70
2022-09-17T17:11:21.046Z,15.36
2022-09-17T17:15:09.724Z,15.26
2022-09-17T17:18:58.392Z,15.84
2022-09-17T17:22:47.322Z,15.29
2022-09-17T17:26:36.420Z,15.65
2022-09-17T17:30:49.252Z,15.91
2022-09-17T17:34:37.318Z,15.97
2022-09-17T17:38:26.046Z,16.08
2022-09-17T17:42:14.867Z,16.16
2022-09-17T17:46:03.268Z,16.20
2022-09-17T17:49:52.420Z,15.65
2022-09-17T17:53:42.318Z,15.49
2022-09-17T17:57:31.080Z,15.14
2022-09-17T18:01:19.880Z,14.78
2022-09-17T18:05:08.709Z,14.51
2022-09-17T18:08:56.876Z,14.40
2022-09-17T18:12:45.644Z,14.45
2022-09-17T18:16:16.605Z,15.01
2022-09-17T18:20:08.046Z,15.28
2022-09-17T18:23:57.097Z,15.39
2022-09-17T18:27:49.426Z,15.49
2022-09-17T18:31:38.266Z,15.57
2022-09-17T18:35:24.360Z,14.74
2022-09-17T18:39:55.708Z,14.62
2022-09-17T18:43:33.323Z,14.31
2022-09-17T18:47:22.861Z,14.10
2022-09-17T18:51:15.035Z,13.86
2022-09-17T18:55:05.334Z,13.77
2022-09-17T18:58:38.026Z,13.74
2022-09-17T19:02:28.664Z,13.62
2022-09-17T19:06:17.157Z,13.46
2022-09-17T19:10:09.010Z,13.24
2022-09-17T19:13:58.568Z,13.03
2022-09-17T19:17:50.505Z,13.11
2022-09-17T19:21:43.117Z,13.11
2022-09-17T19:25:33.382Z,12.78
2022-09-17T19:29:22.099Z,12.93
2022-09-17T19:33:10.503Z,13.38
2022-09-17T19:36:59.893Z,13.46
2022-09-17T19:40:48.758Z,13.44
2022-09-17T19:44:43.063Z,13.33
2022-09-17T19:48:30.071Z,13.21
2022-09-17T19:52:18.314Z,13.11
2022-09-17T19:56:06.637Z,13.10
2022-09-17T19:59:54.366Z,13.02
2022-09-17T20:03:42.750Z,12.93
2022-09-17T20:07:30.709Z,12.79
2022-09-17T20:11:19.270Z,12.42
2022-09-17T20:15:07.400Z,12.06
2022-09-17T20:18:56.709Z,12.42
2022-09-17T20:22:45.290Z,12.57
2022-09-17T20:26:34.996Z,12.50
2022-09-17T20:30:23.382Z,12.44
2022-09-17T20:34:12.486Z,12.34
2022-09-17T20:42:09.896Z,12.30
2022-09-17T20:45:58.521Z,12.23
2022-09-17T20:49:49.243Z,12.18
2022-09-17T20:53:37.344Z,12.14
2022-09-17T20:57:25.720Z,12.06
2022-09-17T21:01:13.885Z,12.02
2022-09-17T21:05:02.449Z,11.89
2022-09-17T21:08:51.997Z,11.89
2022-09-17T21:12:40.051Z,11.80
2022-09-17T21:16:34.592Z,11.80
2022-09-17T21:20:22.738Z,11.68
2022-09-17T21:24:14.444Z,11.63
2022-09-17T21:28:03.117Z,11.58
2022-09-17T21:31:52.355Z,11.54
2022-09-17T21:35:40.149Z,11.55
2022-09-17T21:39:30.915Z,11.54
2022-09-17T21:43:20.399Z,11.41
2022-09-17T21:47:12.314Z,11.29
2022-09-17T21:51:02.524Z,11.24
2022-09-17T21:54:55.426Z,11.19
2022-09-17T21:58:45.760Z,11.16
2022-09-17T22:02:33.794Z,11.04
2022-09-17T22:06:22.091Z,10.99
2022-09-17T22:10:09.934Z,10.98
2022-09-17T22:13:57.819Z,11.00
2022-09-17T22:17:46.293Z,10.89
2022-09-17T22:21:34.715Z,10.78
2022-09-17T22:25:22.799Z,10.74
2022-09-17T22:29:10.733Z,10.66
2022-09-17T22:32:58.760Z,10.74
2022-09-17T22:36:43.257Z,10.77
2022-09-17T22:40:24.234Z,10.82
2022-09-17T22:44:05.055Z,10.81
2022-09-17T22:47:52.824Z,10.73
2022-09-17T22:51:40.663Z,10.67
2022-09-17T22:55:28.583Z,10.53
2022-09-17T22:59:15.962Z,10.44
2022-09-17T23:03:03.497Z,10.31
2022-09-17T23:06:51.113Z,10.30
2022-09-17T23:10:38.913Z,10.26
2022-09-17T23:14:27.075Z,10.33
2022-09-17T23:18:14.782Z,10.28
2022-09-17T23:22:02.674Z,10.24
2022-09-17T23:25:50.605Z,10.21
2022-09-17T23:29:38.222Z,10.02
2022-09-17T23:33:25.950Z,10.02
2022-09-17T23:37:13.558Z,10.02
2022-09-17T23:41:01.152Z,9.90
2022-09-17T23:44:48.800Z,9.63
2022-09-17T23:48:37.047Z,9.67
2022-09-17T23:52:25.106Z,9.70
2022-09-17T23:56:13.754Z,9.07
